CheckWX is a tool to help pilots better visualize weather data.  It is not intended as a substitute for an official pre-flight weather briefing.

09:39:43 UTC

KHYA METAR
Barnstable Municipal-Boardman / Polando Field Airport
Hyannis, Massachusetts, USA
Current

44 mins ago

KHYA 250856Z AUTO 03004KT 10SM CLR 17/14 A3022 RMK AO2 SLP236 T01720144 58003 $
Observed
Aug-25 @ 08:56 UTC
Wind
  • 030° at 4 KTS
Visibility
10 SM
Flight Rules
VFR
Cloud Levels
  • Clear skies
Temperature
17°C / 63°F
Dewpoint
14°C / 57°F
Humidity
83%
Altimeter
30.22" Hg
Pressure
1023.42 hPa
Previous

2 hours ago

KHYA 250756Z AUTO 04007KT 10SM FEW023 FEW047 18/14 A3023 RMK AO2 SLP238 T01780139 $
Observed
Aug-25 @ 07:56 UTC
Wind
  • 040° at 7 KTS
Visibility
10 SM
Flight Rules
VFR
Cloud Levels
  • Few at 2,300' AGL
  • Few at 4,700' AGL
Temperature
18°C / 64°F
Dewpoint
14°C / 57°F
Humidity
78%
Altimeter
30.23" Hg
Pressure
1023.72 hPa
Previous

3 hours ago

KHYA 250656Z AUTO 03006KT 10SM CLR 17/13 A3023 RMK AO2 SLP239 T01720133 $
Observed
Aug-25 @ 06:56 UTC
Wind
  • 030° at 6 KTS
Visibility
10 SM
Flight Rules
VFR
Cloud Levels
  • Clear skies
Temperature
17°C / 63°F
Dewpoint
13°C / 55°F
Humidity
77%
Altimeter
30.23" Hg
Pressure
1023.72 hPa